Messwerte Broughton Island Airport

Temperatur

Temperatur
°C
1573416000 15.00 15.00 -3
1573419600 16.00 16.00
1573423200 17.00 17.00 -3
1573426800 18.00 18.00 -3
1573430400 19.00 19.00 -3
1573434000 20.00 20.00 -3
1573437600 21.00 21.00 -3
1573441200 22.00 22.00
1573444800 23.00 23.00 -3
1573448400 0.00 0.00 -3
1573452000 1.00 1.00 -3
1573455600 2.00 2.00
1573459200 3.00 3.00 -3
1573462800 4.00 4.00 -4
1573466400 5.00 5.00 -3
1573470000 6.00 6.00 -3
1573473600 7.00 7.00 -3
1573477200 8.00 8.00 -3
1573480800 9.00 9.00 -3
1573484400 10.00 10.00 -3
1573488000 11.00 11.00 -3
1573491600 12.00 12.00 -3
1573495200 13.00 13.00 -3
1573498800 14.00 14.00 -3

Aktuellste Messwerte

Wettercharakter
Wetter: bedeckt, etwas Schnee
Temperatur
-3 °C
Feuchtigkeit
93 %
Wind
25 km/hWindrichtung: Nord
Luftdruck
997 hPa
Messzeit: 11. November 2019, 15.00Datenquelle: METAR

Weitere Messstationen in der Nähe

Messstation Temperatur Entfernung
Clyde -10 °C 371 km
Iqaluit -10 °C 470 km

Wind

Windrichtung Böen Mittelwind
° km/h km/h
1573416000 15.00 14.00 - 15.00 330° 45 35
1573419600 16.00 15.00 - 16.00
1573423200 17.00 16.00 - 17.00 340° 35
1573426800 18.00 17.00 - 18.00 340° 45 30
1573430400 19.00 18.00 - 19.00 330° 35
1573434000 20.00 19.00 - 20.00 340° 40 30
1573437600 21.00 20.00 - 21.00 330° 45 30
1573441200 22.00 21.00 - 22.00
1573444800 23.00 22.00 - 23.00 350° 45
1573448400 0.00 23.00 - 0.00 340° 45 30
1573452000 1.00 0.00 - 1.00 320° 45 30
1573455600 2.00 1.00 - 2.00
1573459200 3.00 2.00 - 3.00 330° 45 30
1573462800 4.00 3.00 - 4.00 330° 45 30
1573466400 5.00 4.00 - 5.00 340° 45 30
1573470000 6.00 5.00 - 6.00 350° 50 35
1573473600 7.00 6.00 - 7.00 330° 30 20
1573477200 8.00 7.00 - 8.00 340° 40 30
1573480800 9.00 8.00 - 9.00 350° 45
1573484400 10.00 9.00 - 10.00 350° 45
1573488000 11.00 10.00 - 11.00 330° 45 30
1573491600 12.00 11.00 - 12.00 330° 30
1573495200 13.00 12.00 - 13.00 340° 45 30
1573498800 14.00 13.00 - 14.00 350° 45 40

Ihre Wetterstation

Fehlt Ihre Wetterstation auf unserem Portal?

Schreiben Sie an network@meteonews.ch

Klima

Wann ist es am wärmsten? Wann regnet es am wenigsten? Unsere Klimadaten geben Auskunft.